createdAt,value
2022-12-18T00:00:28.230Z,58.97
2022-12-18T00:02:58.078Z,59.14
2022-12-18T00:05:25.763Z,57.63
2022-12-18T00:07:55.000Z,57.84
2022-12-18T00:10:23.246Z,58.48
2022-12-18T00:12:53.002Z,58.12
2022-12-18T00:15:21.618Z,58.10
2022-12-18T00:17:50.450Z,59.09
2022-12-18T00:20:26.860Z,59.07
2022-12-18T00:22:55.559Z,58.04
2022-12-18T00:25:24.742Z,58.25
2022-12-18T00:27:58.733Z,59.32
2022-12-18T00:30:27.212Z,59.13
2022-12-18T00:32:57.189Z,57.92
2022-12-18T00:35:27.928Z,57.70
2022-12-18T00:37:55.554Z,56.94
2022-12-18T00:40:25.797Z,57.32
2022-12-18T00:42:57.873Z,57.24
2022-12-18T00:45:31.540Z,57.36
2022-12-18T00:48:05.252Z,57.72
2022-12-18T00:50:34.301Z,57.69
2022-12-18T00:53:02.496Z,57.13
2022-12-18T00:55:34.804Z,56.60
2022-12-18T00:58:06.921Z,56.66
2022-12-18T01:00:45.091Z,56.40
2022-12-18T01:03:17.958Z,56.12
2022-12-18T01:05:45.770Z,56.18
2022-12-18T01:08:13.836Z,57.01
2022-12-18T01:10:45.192Z,57.32
2022-12-18T01:13:14.730Z,56.92
2022-12-18T01:15:52.230Z,60.05
2022-12-18T01:18:20.841Z,62.90
2022-12-18T01:20:50.957Z,62.54
2022-12-18T01:23:19.409Z,64.12
2022-12-18T01:25:47.346Z,67.30
2022-12-18T01:28:14.912Z,70.08
2022-12-18T01:30:46.391Z,72.76
2022-12-18T01:33:15.824Z,74.81
2022-12-18T01:35:44.503Z,78.54
2022-12-18T01:38:13.198Z,80.88
2022-12-18T01:40:41.969Z,83.25
2022-12-18T01:43:14.510Z,85.13
2022-12-18T01:45:46.181Z,85.24
2022-12-18T01:48:15.261Z,85.31
2022-12-18T01:50:44.681Z,85.34
2022-12-18T01:53:16.682Z,88.58
2022-12-18T01:55:58.113Z,92.26
2022-12-18T01:58:45.553Z,94.34
2022-12-18T02:01:18.904Z,96.35
2022-12-18T02:03:52.924Z,98.71
2022-12-18T02:06:41.483Z,100.00
2022-12-18T02:09:22.973Z,100.00
2022-12-18T02:11:58.903Z,100.00
2022-12-18T02:14:46.093Z,100.00
2022-12-18T02:17:36.723Z,100.00
2022-12-18T02:20:21.844Z,100.00
2022-12-18T02:23:23.558Z,100.00
2022-12-18T02:26:21.833Z,100.00
2022-12-18T02:29:06.432Z,100.00
2022-12-18T02:31:44.116Z,99.43
2022-12-18T02:34:14.919Z,99.67
2022-12-18T02:36:47.905Z,100.00
2022-12-18T02:39:19.082Z,99.46
2022-12-18T02:41:59.849Z,100.00
2022-12-18T02:44:29.933Z,100.00
2022-12-18T02:46:58.672Z,100.00
2022-12-18T02:49:55.116Z,100.00
2022-12-18T02:53:11.513Z,100.00
2022-12-18T02:56:29.147Z,98.84
2022-12-18T02:59:14.861Z,98.00
2022-12-18T03:02:13.997Z,98.88
2022-12-18T03:04:59.101Z,97.69
2022-12-18T03:07:52.776Z,98.00
2022-12-18T03:10:29.152Z,99.81
2022-12-18T03:13:28.444Z,100.00
2022-12-18T03:16:00.632Z,100.00
2022-12-18T03:18:37.156Z,100.00
2022-12-18T03:21:19.905Z,100.00
2022-12-18T03:23:54.241Z,99.32
2022-12-18T03:26:28.532Z,100.00
2022-12-18T03:29:13.939Z,100.00
2022-12-18T03:31:44.458Z,99.45
2022-12-18T03:34:19.165Z,98.76
2022-12-18T03:36:48.083Z,96.97
2022-12-18T03:39:16.784Z,95.52
2022-12-18T03:42:14.926Z,96.33
2022-12-18T03:45:09.980Z,97.41
2022-12-18T03:47:45.530Z,97.10
2022-12-18T03:50:24.333Z,100.00
2022-12-18T03:53:07.878Z,100.00
2022-12-18T03:55:37.673Z,100.00
2022-12-18T03:58:08.757Z,100.00
2022-12-18T04:00:56.751Z,100.00
2022-12-18T04:03:26.821Z,100.00
2022-12-18T04:05:57.214Z,100.00
2022-12-18T04:08:26.293Z,100.00
2022-12-18T04:11:03.548Z,100.00
2022-12-18T04:13:37.911Z,100.00
2022-12-18T04:16:10.876Z,100.00
2022-12-18T04:18:42.110Z,100.00
2022-12-18T04:21:11.872Z,100.00
2022-12-18T04:23:39.779Z,100.00
2022-12-18T04:26:08.400Z,100.00
2022-12-18T04:28:54.091Z,100.00
2022-12-18T04:31:22.658Z,100.00
2022-12-18T04:33:50.686Z,100.00
2022-12-18T04:36:18.543Z,100.00
2022-12-18T04:38:47.384Z,100.00
2022-12-18T04:41:17.253Z,100.00
2022-12-18T04:43:48.030Z,100.00
2022-12-18T04:46:15.671Z,100.00
2022-12-18T04:48:43.228Z,100.00
2022-12-18T04:51:10.727Z,100.00
2022-12-18T04:53:38.577Z,100.00
2022-12-18T04:56:11.675Z,100.00
2022-12-18T04:58:41.076Z,100.00
2022-12-18T05:01:09.235Z,100.00
2022-12-18T05:03:38.541Z,100.00
2022-12-18T05:06:07.505Z,100.00
2022-12-18T05:08:35.265Z,100.00
2022-12-18T05:11:12.561Z,100.00
2022-12-18T05:13:40.585Z,100.00
2022-12-18T05:16:08.895Z,100.00
2022-12-18T05:18:36.826Z,100.00
2022-12-18T05:21:04.692Z,100.00
2022-12-18T05:23:32.219Z,100.00
2022-12-18T05:26:02.117Z,100.00
2022-12-18T05:28:31.258Z,100.00
2022-12-18T05:31:00.602Z,100.00
2022-12-18T05:33:31.474Z,100.00
2022-12-18T05:36:04.227Z,100.00
2022-12-18T05:38:34.719Z,100.00
2022-12-18T05:41:02.256Z,100.00
2022-12-18T05:43:30.162Z,100.00
2022-12-18T05:45:58.810Z,100.00
2022-12-18T05:48:26.412Z,100.00
2022-12-18T05:50:53.963Z,100.00
2022-12-18T05:53:21.980Z,100.00
2022-12-18T05:55:49.574Z,100.00
2022-12-18T05:58:17.659Z,100.00
2022-12-18T06:00:47.093Z,100.00
2022-12-18T06:03:15.510Z,100.00
2022-12-18T06:05:45.536Z,100.00
2022-12-18T06:08:14.365Z,100.00
2022-12-18T06:10:42.617Z,100.00
2022-12-18T06:13:10.309Z,100.00
2022-12-18T06:15:39.482Z,100.00
2022-12-18T06:18:07.129Z,100.00
2022-12-18T06:20:35.013Z,100.00
2022-12-18T06:23:02.495Z,100.00
2022-12-18T06:25:30.252Z,100.00
2022-12-18T06:27:57.788Z,100.00
2022-12-18T06:30:25.383Z,100.00
2022-12-18T06:32:56.692Z,100.00
2022-12-18T06:35:24.740Z,100.00
2022-12-18T06:37:52.338Z,100.00
2022-12-18T06:40:20.328Z,100.00
2022-12-18T06:42:47.970Z,100.00
2022-12-18T06:45:18.658Z,100.00
2022-12-18T06:47:46.186Z,100.00
2022-12-18T06:50:14.638Z,100.00
2022-12-18T06:52:42.217Z,100.00
2022-12-18T06:55:12.125Z,100.00
2022-12-18T06:57:40.503Z,100.00
2022-12-18T07:00:08.818Z,100.00
2022-12-18T07:02:36.934Z,100.00
2022-12-18T07:05:10.253Z,100.00
2022-12-18T07:07:38.223Z,100.00
2022-12-18T07:10:06.218Z,100.00
2022-12-18T07:12:33.965Z,100.00
2022-12-18T07:15:01.420Z,100.00
2022-12-18T07:17:31.022Z,100.00
2022-12-18T07:19:58.568Z,100.00
2022-12-18T07:22:29.185Z,100.00
2022-12-18T07:24:56.890Z,100.00
2022-12-18T07:27:24.854Z,100.00
2022-12-18T07:29:52.457Z,100.00
2022-12-18T07:32:20.001Z,100.00
2022-12-18T07:34:47.567Z,100.00
2022-12-18T07:37:15.838Z,100.00
2022-12-18T07:39:43.503Z,100.00
2022-12-18T07:42:29.253Z,100.00
2022-12-18T07:44:56.904Z,100.00
2022-12-18T07:47:24.666Z,100.00
2022-12-18T07:49:52.319Z,100.00
2022-12-18T07:52:25.607Z,100.00
2022-12-18T07:54:53.480Z,100.00
2022-12-18T07:57:49.067Z,100.00
2022-12-18T08:00:09.533Z,100.00
2022-12-18T08:02:40.181Z,100.00
2022-12-18T08:05:08.004Z,100.00
2022-12-18T08:07:35.458Z,100.00
2022-12-18T08:10:03.066Z,100.00
2022-12-18T08:12:31.735Z,100.00
2022-12-18T08:14:59.308Z,100.00
2022-12-18T08:17:26.818Z,100.00
2022-12-18T08:19:54.417Z,100.00
2022-12-18T08:22:21.876Z,100.00
2022-12-18T08:24:49.450Z,100.00
2022-12-18T08:27:32.479Z,100.00
2022-12-18T08:30:00.196Z,100.00
2022-12-18T08:32:28.976Z,100.00
2022-12-18T08:34:56.603Z,100.00
2022-12-18T08:37:25.829Z,100.00
2022-12-18T08:39:53.349Z,100.00
2022-12-18T08:42:39.141Z,100.00
2022-12-18T08:45:07.152Z,100.00
2022-12-18T08:47:34.746Z,100.00
2022-12-18T08:50:02.466Z,100.00
2022-12-18T08:52:33.701Z,100.00
2022-12-18T08:55:01.399Z,100.00
2022-12-18T08:57:30.746Z,100.00
2022-12-18T08:59:58.268Z,100.00
2022-12-18T09:02:26.289Z,100.00
2022-12-18T09:04:57.369Z,100.00
2022-12-18T09:07:25.411Z,100.00
2022-12-18T09:09:53.045Z,100.00
2022-12-18T09:12:20.876Z,100.00
2022-12-18T09:14:48.502Z,100.00
2022-12-18T09:17:16.249Z,100.00
2022-12-18T09:19:44.543Z,100.00
2022-12-18T09:22:12.148Z,100.00
2022-12-18T09:24:39.892Z,100.00
2022-12-18T09:27:07.550Z,100.00
2022-12-18T09:29:35.079Z,100.00
2022-12-18T09:32:02.710Z,100.00
2022-12-18T09:34:30.268Z,100.00
2022-12-18T09:36:57.819Z,100.00
2022-12-18T09:39:25.401Z,100.00
2022-12-18T09:41:56.239Z,100.00
2022-12-18T09:44:45.406Z,100.00
2022-12-18T09:47:32.534Z,100.00
2022-12-18T09:50:05.361Z,100.00
2022-12-18T09:52:43.208Z,100.00
2022-12-18T09:55:38.442Z,100.00
2022-12-18T09:58:28.081Z,100.00
2022-12-18T10:00:56.386Z,100.00
2022-12-18T10:03:24.226Z,100.00
2022-12-18T10:06:23.053Z,100.00
2022-12-18T10:09:00.314Z,100.00
2022-12-18T10:11:48.120Z,100.00
2022-12-18T10:14:37.063Z,100.00
2022-12-18T10:17:27.941Z,100.00
2022-12-18T10:20:06.648Z,100.00
2022-12-18T10:22:46.189Z,100.00
2022-12-18T10:25:32.901Z,100.00
2022-12-18T10:28:12.946Z,100.00
2022-12-18T10:30:42.140Z,100.00
2022-12-18T10:33:19.823Z,100.00
2022-12-18T10:35:49.543Z,100.00
2022-12-18T10:38:18.459Z,100.00
2022-12-18T10:41:23.360Z,100.00
2022-12-18T10:44:13.310Z,100.00
2022-12-18T10:46:41.064Z,100.00
2022-12-18T10:49:22.635Z,100.00
2022-12-18T10:51:50.869Z,100.00
2022-12-18T10:54:24.435Z,100.00
2022-12-18T10:56:52.082Z,100.00
2022-12-18T10:59:20.346Z,100.00
2022-12-18T11:01:56.892Z,100.00
2022-12-18T11:04:27.019Z,100.00
2022-12-18T11:06:58.054Z,100.00
2022-12-18T11:09:32.924Z,100.00
2022-12-18T11:12:03.875Z,100.00
2022-12-18T11:14:47.198Z,100.00
2022-12-18T11:17:36.037Z,100.00
2022-12-18T11:20:08.292Z,100.00
2022-12-18T11:22:37.678Z,100.00
2022-12-18T11:25:35.925Z,100.00
2022-12-18T11:28:49.101Z,100.00
2022-12-18T11:31:29.526Z,100.00
2022-12-18T11:34:29.733Z,100.00
2022-12-18T11:37:01.012Z,100.00
2022-12-18T11:39:43.533Z,100.00
2022-12-18T11:42:15.794Z,100.00
2022-12-18T11:44:59.645Z,100.00
2022-12-18T11:47:42.082Z,100.00
2022-12-18T11:50:19.903Z,100.00
2022-12-18T11:52:50.406Z,100.00
2022-12-18T11:55:47.795Z,100.00
2022-12-18T11:58:33.871Z,100.00
2022-12-18T12:01:04.293Z,100.00
2022-12-18T12:03:41.233Z,100.00
2022-12-18T12:06:21.391Z,100.00
2022-12-18T12:08:57.736Z,100.00
2022-12-18T12:11:38.663Z,100.00
2022-12-18T12:14:30.793Z,100.00
2022-12-18T12:17:13.845Z,100.00
2022-12-18T12:20:15.115Z,100.00
2022-12-18T12:23:16.578Z,100.00
2022-12-18T12:26:13.858Z,100.00
2022-12-18T12:28:53.408Z,100.00
2022-12-18T12:31:39.124Z,100.00
2022-12-18T12:34:33.456Z,100.00
2022-12-18T12:37:30.661Z,100.00
2022-12-18T12:39:58.192Z,100.00
2022-12-18T12:43:01.186Z,100.00
2022-12-18T12:45:42.508Z,100.00
2022-12-18T12:48:33.248Z,100.00
2022-12-18T12:51:08.492Z,100.00
2022-12-18T12:53:39.221Z,100.00
2022-12-18T12:56:10.022Z,100.00
2022-12-18T12:58:40.287Z,100.00
2022-12-18T13:01:23.602Z,100.00
2022-12-18T13:03:55.794Z,100.00
2022-12-18T13:06:44.867Z,100.00
2022-12-18T13:09:13.997Z,100.00
2022-12-18T13:12:06.971Z,100.00
2022-12-18T13:14:35.797Z,100.00
2022-12-18T13:17:21.743Z,100.00
2022-12-18T13:20:04.548Z,100.00
2022-12-18T13:22:41.023Z,100.00
2022-12-18T13:25:35.081Z,100.00
2022-12-18T13:28:16.591Z,100.00
2022-12-18T13:30:47.549Z,100.00
2022-12-18T13:33:15.075Z,100.00
2022-12-18T13:36:02.875Z,100.00
2022-12-18T13:38:33.692Z,100.00
2022-12-18T13:41:23.756Z,100.00
2022-12-18T13:43:59.302Z,100.00
2022-12-18T13:46:46.987Z,100.00
2022-12-18T13:49:14.485Z,100.00
2022-12-18T13:51:45.593Z,100.00
2022-12-18T13:54:30.287Z,100.00
2022-12-18T13:56:57.928Z,100.00
2022-12-18T13:59:36.264Z,100.00
2022-12-18T14:02:15.757Z,100.00
2022-12-18T14:04:47.300Z,100.00
2022-12-18T14:07:20.448Z,100.00
2022-12-18T14:09:52.297Z,100.00
2022-12-18T14:12:48.188Z,100.00
2022-12-18T14:15:37.933Z,100.00
2022-12-18T14:18:29.717Z,100.00
2022-12-18T14:21:00.253Z,100.00
2022-12-18T14:23:30.330Z,100.00
2022-12-18T14:26:03.612Z,100.00
2022-12-18T14:28:33.467Z,100.00
2022-12-18T14:31:01.040Z,100.00
2022-12-18T14:33:29.425Z,100.00
2022-12-18T14:36:05.853Z,100.00
2022-12-18T14:38:37.525Z,100.00
2022-12-18T14:41:08.230Z,100.00
2022-12-18T14:43:38.161Z,100.00
2022-12-18T14:46:45.977Z,100.00
2022-12-18T14:49:34.181Z,100.00
2022-12-18T14:52:04.908Z,100.00
2022-12-18T14:54:33.865Z,100.00
2022-12-18T14:57:05.250Z,100.00
2022-12-18T14:59:33.767Z,100.00
2022-12-18T15:02:23.311Z,100.00
2022-12-18T15:05:12.706Z,100.00
2022-12-18T15:07:45.872Z,100.00
2022-12-18T15:10:21.498Z,100.00
2022-12-18T15:12:50.593Z,100.00
2022-12-18T15:15:40.861Z,100.00
2022-12-18T15:18:13.571Z,100.00
2022-12-18T15:20:42.702Z,100.00
2022-12-18T15:23:34.034Z,100.00
2022-12-18T15:26:09.949Z,100.00
2022-12-18T15:28:47.049Z,100.00
2022-12-18T15:31:14.597Z,100.00
2022-12-18T15:33:51.638Z,100.00
2022-12-18T15:36:21.365Z,100.00
2022-12-18T15:39:02.142Z,100.00
2022-12-18T15:41:37.992Z,100.00
2022-12-18T15:44:24.681Z,100.00
2022-12-18T15:46:52.678Z,100.00
2022-12-18T15:49:20.320Z,100.00
2022-12-18T15:52:00.545Z,100.00
2022-12-18T15:54:48.030Z,100.00
2022-12-18T15:57:27.160Z,100.00
2022-12-18T16:00:01.850Z,100.00
2022-12-18T16:02:50.934Z,100.00
2022-12-18T16:05:27.147Z,100.00
2022-12-18T16:07:56.070Z,100.00
2022-12-18T16:10:30.095Z,100.00
2022-12-18T16:12:58.490Z,100.00
2022-12-18T16:15:40.559Z,100.00
2022-12-18T16:18:09.906Z,100.00
2022-12-18T16:20:38.980Z,100.00
2022-12-18T16:23:09.099Z,100.00
2022-12-18T16:25:39.032Z,100.00
2022-12-18T16:28:10.368Z,100.00
2022-12-18T16:30:39.122Z,100.00
2022-12-18T16:33:15.082Z,100.00
2022-12-18T16:35:44.771Z,100.00
2022-12-18T16:38:26.607Z,100.00
2022-12-18T16:41:15.118Z,100.00
2022-12-18T16:43:44.125Z,100.00
2022-12-18T16:46:14.966Z,100.00
2022-12-18T16:48:45.974Z,100.00
2022-12-18T16:51:14.039Z,100.00
2022-12-18T16:53:53.627Z,100.00
2022-12-18T16:56:28.739Z,100.00
2022-12-18T16:59:04.094Z,100.00
2022-12-18T17:01:34.737Z,100.00
2022-12-18T17:04:06.800Z,100.00
2022-12-18T17:06:41.960Z,100.00
2022-12-18T17:09:24.523Z,100.00
2022-12-18T17:11:54.678Z,100.00
2022-12-18T17:14:26.077Z,100.00
2022-12-18T17:17:20.919Z,100.00
2022-12-18T17:19:50.459Z,100.00
2022-12-18T17:22:30.040Z,100.00
2022-12-18T17:24:57.907Z,100.00
2022-12-18T17:27:28.646Z,100.00
2022-12-18T17:29:59.147Z,100.00
2022-12-18T17:32:31.596Z,100.00
2022-12-18T17:35:03.932Z,100.00
2022-12-18T17:37:36.304Z,100.00
2022-12-18T17:40:04.513Z,100.00
2022-12-18T17:42:32.464Z,100.00
2022-12-18T17:45:00.127Z,100.00
2022-12-18T17:47:28.322Z,100.00
2022-12-18T17:49:56.004Z,100.00
2022-12-18T17:52:27.162Z,100.00
2022-12-18T17:54:57.424Z,100.00
2022-12-18T17:57:27.870Z,100.00
2022-12-18T17:59:59.393Z,100.00
2022-12-18T18:02:31.148Z,100.00
2022-12-18T18:05:00.925Z,100.00
2022-12-18T18:07:46.103Z,100.00
2022-12-18T18:10:18.254Z,100.00
2022-12-18T18:13:08.677Z,100.00
2022-12-18T18:15:36.379Z,100.00
2022-12-18T18:18:05.692Z,100.00
2022-12-18T18:20:33.367Z,100.00
2022-12-18T18:23:03.772Z,100.00
2022-12-18T18:25:36.594Z,100.00
2022-12-18T18:28:08.414Z,100.00
2022-12-18T18:30:37.661Z,100.00
2022-12-18T18:33:11.814Z,100.00
2022-12-18T18:35:54.214Z,100.00
2022-12-18T18:38:30.571Z,100.00
2022-12-18T18:41:05.123Z,100.00
2022-12-18T18:46:53.171Z,100.00
2022-12-18T18:49:27.904Z,100.00
2022-12-18T18:51:57.674Z,100.00
2022-12-18T18:54:27.586Z,100.00
2022-12-18T18:59:48.603Z,100.00
2022-12-18T19:02:19.617Z,100.00
2022-12-18T19:04:49.495Z,100.00
2022-12-18T19:07:29.501Z,100.00
2022-12-18T19:10:04.645Z,100.00
2022-12-18T19:12:55.099Z,100.00
2022-12-18T19:15:42.339Z,100.00
2022-12-18T19:18:10.109Z,100.00
2022-12-18T19:20:38.454Z,100.00
2022-12-18T19:23:06.156Z,100.00
2022-12-18T19:25:41.828Z,100.00
2022-12-18T19:28:17.377Z,100.00
2022-12-18T19:30:50.332Z,100.00
2022-12-18T19:33:41.585Z,100.00
2022-12-18T19:36:21.272Z,100.00
2022-12-18T19:38:51.498Z,100.00
2022-12-18T19:41:21.522Z,100.00
2022-12-18T19:43:52.594Z,100.00
2022-12-18T19:46:24.084Z,100.00
2022-12-18T19:48:53.733Z,100.00
2022-12-18T19:51:27.017Z,100.00
2022-12-18T19:53:58.789Z,100.00
2022-12-18T19:56:29.647Z,100.00
2022-12-18T19:58:58.132Z,100.00
2022-12-18T20:01:36.549Z,100.00
2022-12-18T20:04:08.571Z,100.00
2022-12-18T20:06:50.839Z,100.00
2022-12-18T20:09:19.794Z,100.00
2022-12-18T20:11:49.430Z,100.00
2022-12-18T20:14:23.343Z,100.00
2022-12-18T20:16:58.279Z,100.00
2022-12-18T20:19:37.775Z,100.00
2022-12-18T20:22:17.086Z,100.00
2022-12-18T20:24:53.427Z,100.00
2022-12-18T20:27:24.809Z,100.00
2022-12-18T20:29:52.590Z,100.00
2022-12-18T20:32:20.666Z,100.00
2022-12-18T20:34:48.534Z,100.00
2022-12-18T20:37:16.306Z,100.00
2022-12-18T20:39:44.438Z,100.00
2022-12-18T20:42:12.928Z,100.00
2022-12-18T20:44:41.703Z,100.00
2022-12-18T20:47:11.271Z,100.00
2022-12-18T20:49:42.057Z,100.00
2022-12-18T20:52:13.481Z,100.00
2022-12-18T20:54:49.990Z,100.00
2022-12-18T20:57:20.552Z,100.00
2022-12-18T20:59:52.165Z,100.00
2022-12-18T21:02:22.136Z,100.00
2022-12-18T21:04:54.932Z,100.00
2022-12-18T21:07:24.117Z,100.00
2022-12-18T21:09:55.251Z,100.00
2022-12-18T21:12:44.930Z,100.00
2022-12-18T21:15:43.919Z,100.00
2022-12-18T21:18:14.526Z,100.00
2022-12-18T21:20:42.769Z,100.00
2022-12-18T21:23:16.506Z,100.00
2022-12-18T21:25:46.665Z,100.00
2022-12-18T21:28:17.313Z,100.00
2022-12-18T21:30:45.313Z,100.00
2022-12-18T21:33:13.041Z,100.00
2022-12-18T21:35:40.588Z,100.00
2022-12-18T21:38:08.578Z,100.00
2022-12-18T21:40:36.410Z,100.00
2022-12-18T21:43:23.274Z,100.00
2022-12-18T21:45:50.761Z,100.00
2022-12-18T21:48:18.358Z,100.00
2022-12-18T21:50:46.055Z,100.00
2022-12-18T21:53:13.857Z,100.00
2022-12-18T21:55:41.427Z,100.00
2022-12-18T21:58:08.929Z,100.00
2022-12-18T22:00:36.505Z,100.00
2022-12-18T22:03:18.216Z,100.00
2022-12-18T22:06:08.972Z,100.00
2022-12-18T22:08:44.021Z,100.00
2022-12-18T22:11:17.429Z,100.00
2022-12-18T22:13:49.670Z,100.00
2022-12-18T22:16:21.425Z,100.00
2022-12-18T22:18:52.065Z,100.00
2022-12-18T22:21:29.621Z,100.00
2022-12-18T22:24:01.870Z,100.00
2022-12-18T22:26:44.130Z,100.00
2022-12-18T22:29:39.421Z,100.00
2022-12-18T22:32:11.537Z,100.00
2022-12-18T22:34:48.899Z,100.00
2022-12-18T22:37:17.792Z,100.00
2022-12-18T22:39:45.639Z,100.00
2022-12-18T22:42:19.784Z,100.00
2022-12-18T22:44:48.797Z,100.00
2022-12-18T22:47:29.191Z,100.00
2022-12-18T22:50:01.361Z,100.00
2022-12-18T22:52:37.596Z,100.00
2022-12-18T22:55:08.467Z,100.00
2022-12-18T22:57:38.027Z,100.00
2022-12-18T23:00:13.543Z,100.00
2022-12-18T23:02:45.872Z,100.00
2022-12-18T23:08:04.293Z,100.00
2022-12-18T23:10:37.312Z,100.00
2022-12-18T23:13:12.356Z,100.00
2022-12-18T23:15:44.339Z,100.00
2022-12-18T23:18:28.065Z,100.00
2022-12-18T23:20:56.838Z,100.00
2022-12-18T23:23:29.226Z,100.00
2022-12-18T23:26:06.754Z,100.00
2022-12-18T23:28:43.594Z,100.00
2022-12-18T23:31:40.040Z,100.00
2022-12-18T23:34:25.639Z,100.00
2022-12-18T23:36:59.478Z,100.00
2022-12-18T23:39:37.408Z,100.00
2022-12-18T23:42:16.581Z,100.00
2022-12-18T23:44:48.699Z,100.00
2022-12-18T23:47:23.935Z,100.00
2022-12-18T23:49:52.212Z,100.00
2022-12-18T23:52:37.908Z,100.00
2022-12-18T23:58:26.603Z,100.00
